sensor_id;sensor_type;location;lat;lon;timestamp;P1;durP1;ratioP1;P2;durP2;ratioP2
23714;SDS011;12036;50.858;4.472;2023-04-06T00:01:33;17.80;;;9.77;;
23714;SDS011;12036;50.858;4.472;2023-04-06T00:03:59;15.40;;;9.45;;
23714;SDS011;12036;50.858;4.472;2023-04-06T00:06:25;19.80;;;9.52;;
23714;SDS011;12036;50.858;4.472;2023-04-06T00:08:51;19.48;;;9.90;;
23714;SDS011;12036;50.858;4.472;2023-04-06T00:11:17;16.30;;;9.02;;
23714;SDS011;12036;50.858;4.472;2023-04-06T00:13:43;16.02;;;9.18;;
23714;SDS011;12036;50.858;4.472;2023-04-06T00:16:09;17.35;;;9.13;;
23714;SDS011;12036;50.858;4.472;2023-04-06T00:18:35;16.30;;;8.30;;
23714;SDS011;12036;50.858;4.472;2023-04-06T00:21:01;15.50;;;8.73;;
23714;SDS011;12036;50.858;4.472;2023-04-06T00:23:27;16.08;;;8.95;;
23714;SDS011;12036;50.858;4.472;2023-04-06T00:25:52;13.85;;;8.25;;
23714;SDS011;12036;50.858;4.472;2023-04-06T00:28:18;15.95;;;9.60;;
23714;SDS011;12036;50.858;4.472;2023-04-06T00:33:17;15.93;;;8.15;;
23714;SDS011;12036;50.858;4.472;2023-04-06T00:35:43;15.65;;;8.70;;
23714;SDS011;12036;50.858;4.472;2023-04-06T00:38:09;15.93;;;8.57;;
23714;SDS011;12036;50.858;4.472;2023-04-06T00:40:35;16.75;;;8.48;;
23714;SDS011;12036;50.858;4.472;2023-04-06T00:43:00;16.73;;;8.55;;
23714;SDS011;12036;50.858;4.472;2023-04-06T00:45:26;15.48;;;9.30;;
23714;SDS011;12036;50.858;4.472;2023-04-06T00:47:52;18.45;;;9.57;;
23714;SDS011;12036;50.858;4.472;2023-04-06T00:50:18;16.83;;;9.70;;
23714;SDS011;12036;50.858;4.472;2023-04-06T00:52:44;17.80;;;9.88;;
23714;SDS011;12036;50.858;4.472;2023-04-06T00:55:10;21.33;;;10.02;;
23714;SDS011;12036;50.858;4.472;2023-04-06T00:57:35;16.83;;;9.82;;
23714;SDS011;12036;50.858;4.472;2023-04-06T01:00:02;20.83;;;9.73;;
23714;SDS011;12036;50.858;4.472;2023-04-06T01:02:28;24.45;;;9.45;;
23714;SDS011;12036;50.858;4.472;2023-04-06T01:04:54;22.38;;;10.55;;
23714;SDS011;12036;50.858;4.472;2023-04-06T01:07:20;18.67;;;9.23;;
23714;SDS011;12036;50.858;4.472;2023-04-06T01:09:46;22.15;;;10.15;;
23714;SDS011;12036;50.858;4.472;2023-04-06T01:12:11;20.33;;;10.07;;
23714;SDS011;12036;50.858;4.472;2023-04-06T01:14:37;18.30;;;9.70;;
23714;SDS011;12036;50.858;4.472;2023-04-06T01:17:03;24.13;;;10.20;;
23714;SDS011;12036;50.858;4.472;2023-04-06T01:19:29;20.95;;;9.73;;
23714;SDS011;12036;50.858;4.472;2023-04-06T01:21:54;21.45;;;10.27;;
23714;SDS011;12036;50.858;4.472;2023-04-06T01:24:20;20.88;;;9.73;;
23714;SDS011;12036;50.858;4.472;2023-04-06T01:26:46;26.20;;;11.25;;
23714;SDS011;12036;50.858;4.472;2023-04-06T01:29:12;23.17;;;10.30;;
23714;SDS011;12036;50.858;4.472;2023-04-06T01:31:38;22.15;;;9.95;;
23714;SDS011;12036;50.858;4.472;2023-04-06T01:34:04;19.05;;;9.27;;
23714;SDS011;12036;50.858;4.472;2023-04-06T01:36:30;22.73;;;10.98;;
23714;SDS011;12036;50.858;4.472;2023-04-06T01:38:56;20.20;;;9.80;;
23714;SDS011;12036;50.858;4.472;2023-04-06T01:41:21;22.98;;;9.00;;
23714;SDS011;12036;50.858;4.472;2023-04-06T01:43:47;26.50;;;9.98;;
23714;SDS011;12036;50.858;4.472;2023-04-06T01:46:13;19.92;;;10.13;;
23714;SDS011;12036;50.858;4.472;2023-04-06T01:48:39;20.88;;;8.90;;
23714;SDS011;12036;50.858;4.472;2023-04-06T01:51:05;19.73;;;9.15;;
23714;SDS011;12036;50.858;4.472;2023-04-06T01:53:30;14.93;;;9.05;;
23714;SDS011;12036;50.858;4.472;2023-04-06T01:55:56;18.85;;;9.50;;
23714;SDS011;12036;50.858;4.472;2023-04-06T01:58:22;15.85;;;9.07;;
23714;SDS011;12036;50.858;4.472;2023-04-06T02:00:47;18.38;;;9.10;;
23714;SDS011;12036;50.858;4.472;2023-04-06T02:03:13;15.82;;;8.77;;
23714;SDS011;12036;50.858;4.472;2023-04-06T02:05:39;15.13;;;8.50;;
23714;SDS011;12036;50.858;4.472;2023-04-06T02:08:05;19.77;;;8.38;;
23714;SDS011;12036;50.858;4.472;2023-04-06T02:10:32;16.52;;;8.68;;
23714;SDS011;12036;50.858;4.472;2023-04-06T02:12:58;18.23;;;9.52;;
23714;SDS011;12036;50.858;4.472;2023-04-06T02:15:24;18.88;;;8.80;;
23714;SDS011;12036;50.858;4.472;2023-04-06T02:17:50;14.90;;;8.77;;
23714;SDS011;12036;50.858;4.472;2023-04-06T02:20:16;17.13;;;9.13;;
23714;SDS011;12036;50.858;4.472;2023-04-06T02:22:42;19.67;;;9.57;;
23714;SDS011;12036;50.858;4.472;2023-04-06T02:25:08;17.75;;;8.90;;
23714;SDS011;12036;50.858;4.472;2023-04-06T02:27:34;15.15;;;8.93;;
23714;SDS011;12036;50.858;4.472;2023-04-06T02:30:00;17.27;;;9.43;;
23714;SDS011;12036;50.858;4.472;2023-04-06T02:32:27;19.02;;;9.15;;
23714;SDS011;12036;50.858;4.472;2023-04-06T02:34:53;15.63;;;9.10;;
23714;SDS011;12036;50.858;4.472;2023-04-06T02:37:18;16.13;;;9.18;;
23714;SDS011;12036;50.858;4.472;2023-04-06T02:39:44;19.83;;;8.77;;
23714;SDS011;12036;50.858;4.472;2023-04-06T02:42:10;18.98;;;9.35;;
23714;SDS011;12036;50.858;4.472;2023-04-06T02:44:35;17.52;;;9.50;;
23714;SDS011;12036;50.858;4.472;2023-04-06T02:47:01;16.13;;;9.30;;
23714;SDS011;12036;50.858;4.472;2023-04-06T02:49:27;17.35;;;8.70;;
23714;SDS011;12036;50.858;4.472;2023-04-06T02:51:52;16.25;;;9.48;;
23714;SDS011;12036;50.858;4.472;2023-04-06T02:54:18;17.20;;;8.95;;
23714;SDS011;12036;50.858;4.472;2023-04-06T02:56:44;14.55;;;8.57;;
23714;SDS011;12036;50.858;4.472;2023-04-06T02:59:10;20.00;;;8.68;;
23714;SDS011;12036;50.858;4.472;2023-04-06T03:01:36;17.00;;;9.45;;
23714;SDS011;12036;50.858;4.472;2023-04-06T03:04:02;15.10;;;8.80;;
23714;SDS011;12036;50.858;4.472;2023-04-06T03:06:28;18.15;;;9.57;;
23714;SDS011;12036;50.858;4.472;2023-04-06T03:08:53;12.77;;;8.23;;
23714;SDS011;12036;50.858;4.472;2023-04-06T03:11:19;21.85;;;9.20;;
23714;SDS011;12036;50.858;4.472;2023-04-06T03:13:45;18.90;;;8.85;;
23714;SDS011;12036;50.858;4.472;2023-04-06T03:16:11;18.17;;;8.65;;
23714;SDS011;12036;50.858;4.472;2023-04-06T03:18:37;18.42;;;9.20;;
23714;SDS011;12036;50.858;4.472;2023-04-06T03:21:02;16.60;;;8.50;;
23714;SDS011;12036;50.858;4.472;2023-04-06T03:23:28;15.65;;;8.73;;
23714;SDS011;12036;50.858;4.472;2023-04-06T03:25:54;17.98;;;8.68;;
23714;SDS011;12036;50.858;4.472;2023-04-06T03:28:20;19.13;;;9.40;;
23714;SDS011;12036;50.858;4.472;2023-04-06T03:30:46;14.55;;;7.82;;
23714;SDS011;12036;50.858;4.472;2023-04-06T03:33:11;15.25;;;8.60;;
23714;SDS011;12036;50.858;4.472;2023-04-06T03:35:37;17.40;;;9.75;;
23714;SDS011;12036;50.858;4.472;2023-04-06T03:38:03;15.60;;;8.93;;
23714;SDS011;12036;50.858;4.472;2023-04-06T03:40:32;15.48;;;9.02;;
23714;SDS011;12036;50.858;4.472;2023-04-06T03:42:58;16.75;;;9.00;;
23714;SDS011;12036;50.858;4.472;2023-04-06T03:45:24;15.13;;;9.20;;
23714;SDS011;12036;50.858;4.472;2023-04-06T03:47:50;19.90;;;9.68;;
23714;SDS011;12036;50.858;4.472;2023-04-06T03:50:16;19.67;;;9.68;;
23714;SDS011;12036;50.858;4.472;2023-04-06T03:52:41;17.90;;;9.90;;
23714;SDS011;12036;50.858;4.472;2023-04-06T03:55:07;18.80;;;10.02;;
23714;SDS011;12036;50.858;4.472;2023-04-06T03:57:33;16.70;;;9.82;;
23714;SDS011;12036;50.858;4.472;2023-04-06T03:59:59;16.58;;;9.80;;
23714;SDS011;12036;50.858;4.472;2023-04-06T04:02:24;19.17;;;10.18;;
23714;SDS011;12036;50.858;4.472;2023-04-06T04:04:50;17.17;;;10.05;;
23714;SDS011;12036;50.858;4.472;2023-04-06T04:07:16;17.48;;;10.02;;
23714;SDS011;12036;50.858;4.472;2023-04-06T04:09:41;23.30;;;10.25;;
23714;SDS011;12036;50.858;4.472;2023-04-06T04:12:07;20.00;;;10.30;;
23714;SDS011;12036;50.858;4.472;2023-04-06T04:14:33;17.17;;;10.15;;
23714;SDS011;12036;50.858;4.472;2023-04-06T04:16:58;16.17;;;9.52;;
23714;SDS011;12036;50.858;4.472;2023-04-06T04:19:24;17.40;;;9.88;;
23714;SDS011;12036;50.858;4.472;2023-04-06T04:21:50;18.95;;;10.35;;
23714;SDS011;12036;50.858;4.472;2023-04-06T04:24:15;20.90;;;10.77;;
23714;SDS011;12036;50.858;4.472;2023-04-06T04:26:41;14.88;;;10.02;;
23714;SDS011;12036;50.858;4.472;2023-04-06T04:29:07;15.88;;;9.82;;
23714;SDS011;12036;50.858;4.472;2023-04-06T04:31:33;17.17;;;9.20;;
23714;SDS011;12036;50.858;4.472;2023-04-06T04:33:59;18.83;;;9.02;;
23714;SDS011;12036;50.858;4.472;2023-04-06T04:36:25;16.17;;;9.68;;
23714;SDS011;12036;50.858;4.472;2023-04-06T04:38:51;19.58;;;10.25;;
23714;SDS011;12036;50.858;4.472;2023-04-06T04:41:17;15.68;;;8.95;;
23714;SDS011;12036;50.858;4.472;2023-04-06T04:43:43;17.50;;;9.93;;
23714;SDS011;12036;50.858;4.472;2023-04-06T04:46:09;16.33;;;10.02;;
23714;SDS011;12036;50.858;4.472;2023-04-06T04:48:35;16.83;;;10.13;;
23714;SDS011;12036;50.858;4.472;2023-04-06T04:51:01;18.25;;;9.85;;
23714;SDS011;12036;50.858;4.472;2023-04-06T04:53:27;17.80;;;10.30;;
23714;SDS011;12036;50.858;4.472;2023-04-06T04:55:52;18.80;;;9.88;;
23714;SDS011;12036;50.858;4.472;2023-04-06T04:58:18;16.75;;;9.70;;
23714;SDS011;12036;50.858;4.472;2023-04-06T05:00:45;16.80;;;10.40;;
23714;SDS011;12036;50.858;4.472;2023-04-06T05:03:17;18.02;;;10.10;;
23714;SDS011;12036;50.858;4.472;2023-04-06T05:05:48;16.20;;;9.57;;
23714;SDS011;12036;50.858;4.472;2023-04-06T05:08:14;19.45;;;10.10;;
23714;SDS011;12036;50.858;4.472;2023-04-06T05:10:40;20.10;;;10.05;;
23714;SDS011;12036;50.858;4.472;2023-04-06T05:13:06;18.55;;;9.40;;
23714;SDS011;12036;50.858;4.472;2023-04-06T05:15:32;17.40;;;9.15;;
23714;SDS011;12036;50.858;4.472;2023-04-06T05:18:03;17.63;;;9.97;;
23714;SDS011;12036;50.858;4.472;2023-04-06T05:20:29;16.25;;;9.63;;
23714;SDS011;12036;50.858;4.472;2023-04-06T05:22:55;17.08;;;9.48;;
23714;SDS011;12036;50.858;4.472;2023-04-06T05:25:21;19.85;;;9.65;;
23714;SDS011;12036;50.858;4.472;2023-04-06T05:27:47;18.23;;;10.07;;
23714;SDS011;12036;50.858;4.472;2023-04-06T05:30:12;19.27;;;10.15;;
23714;SDS011;12036;50.858;4.472;2023-04-06T05:32:38;18.55;;;10.13;;
23714;SDS011;12036;50.858;4.472;2023-04-06T05:35:04;17.35;;;10.20;;
23714;SDS011;12036;50.858;4.472;2023-04-06T05:37:30;23.40;;;10.60;;
23714;SDS011;12036;50.858;4.472;2023-04-06T05:39:56;18.10;;;10.13;;
23714;SDS011;12036;50.858;4.472;2023-04-06T05:42:22;16.48;;;9.80;;
23714;SDS011;12036;50.858;4.472;2023-04-06T05:44:48;15.77;;;10.13;;
23714;SDS011;12036;50.858;4.472;2023-04-06T05:47:14;16.77;;;9.98;;
23714;SDS011;12036;50.858;4.472;2023-04-06T05:49:41;17.60;;;9.77;;
23714;SDS011;12036;50.858;4.472;2023-04-06T05:52:08;16.95;;;10.35;;
23714;SDS011;12036;50.858;4.472;2023-04-06T05:54:34;17.02;;;9.77;;
23714;SDS011;12036;50.858;4.472;2023-04-06T05:57:01;17.70;;;10.48;;
23714;SDS011;12036;50.858;4.472;2023-04-06T05:59:28;16.80;;;10.27;;
23714;SDS011;12036;50.858;4.472;2023-04-06T06:01:55;18.60;;;10.98;;
23714;SDS011;12036;50.858;4.472;2023-04-06T06:04:20;17.88;;;10.43;;
23714;SDS011;12036;50.858;4.472;2023-04-06T06:06:46;18.08;;;10.43;;
23714;SDS011;12036;50.858;4.472;2023-04-06T06:09:12;20.20;;;10.38;;
23714;SDS011;12036;50.858;4.472;2023-04-06T06:11:37;19.50;;;10.02;;
23714;SDS011;12036;50.858;4.472;2023-04-06T06:14:03;15.98;;;10.38;;
23714;SDS011;12036;50.858;4.472;2023-04-06T06:16:29;19.92;;;10.98;;
23714;SDS011;12036;50.858;4.472;2023-04-06T06:18:55;20.27;;;11.05;;
23714;SDS011;12036;50.858;4.472;2023-04-06T06:21:21;19.75;;;11.00;;
23714;SDS011;12036;50.858;4.472;2023-04-06T06:23:46;18.95;;;10.70;;
23714;SDS011;12036;50.858;4.472;2023-04-06T06:26:14;23.38;;;12.00;;
23714;SDS011;12036;50.858;4.472;2023-04-06T06:28:40;21.17;;;11.63;;
23714;SDS011;12036;50.858;4.472;2023-04-06T06:31:05;22.38;;;12.48;;
23714;SDS011;12036;50.858;4.472;2023-04-06T06:33:32;21.60;;;12.43;;
23714;SDS011;12036;50.858;4.472;2023-04-06T06:35:57;21.65;;;11.63;;
23714;SDS011;12036;50.858;4.472;2023-04-06T06:38:24;20.05;;;11.27;;
23714;SDS011;12036;50.858;4.472;2023-04-06T06:40:50;19.98;;;11.52;;
23714;SDS011;12036;50.858;4.472;2023-04-06T06:43:17;19.77;;;11.93;;
23714;SDS011;12036;50.858;4.472;2023-04-06T06:45:43;24.02;;;12.40;;
23714;SDS011;12036;50.858;4.472;2023-04-06T06:48:09;23.40;;;11.85;;
23714;SDS011;12036;50.858;4.472;2023-04-06T06:50:35;20.73;;;11.35;;
23714;SDS011;12036;50.858;4.472;2023-04-06T06:53:01;24.48;;;12.18;;
23714;SDS011;12036;50.858;4.472;2023-04-06T06:55:27;22.05;;;12.05;;
23714;SDS011;12036;50.858;4.472;2023-04-06T06:57:53;19.70;;;11.95;;
23714;SDS011;12036;50.858;4.472;2023-04-06T07:00:18;21.00;;;11.73;;
23714;SDS011;12036;50.858;4.472;2023-04-06T07:02:47;19.73;;;11.77;;
23714;SDS011;12036;50.858;4.472;2023-04-06T07:05:13;23.30;;;11.65;;
23714;SDS011;12036;50.858;4.472;2023-04-06T07:07:40;23.17;;;12.05;;
23714;SDS011;12036;50.858;4.472;2023-04-06T07:10:07;20.23;;;12.43;;
23714;SDS011;12036;50.858;4.472;2023-04-06T07:12:33;21.42;;;11.75;;
23714;SDS011;12036;50.858;4.472;2023-04-06T07:14:59;23.80;;;12.07;;
23714;SDS011;12036;50.858;4.472;2023-04-06T07:17:25;23.83;;;12.05;;
23714;SDS011;12036;50.858;4.472;2023-04-06T07:19:51;22.13;;;12.05;;
23714;SDS011;12036;50.858;4.472;2023-04-06T07:22:17;21.20;;;11.88;;
23714;SDS011;12036;50.858;4.472;2023-04-06T07:24:43;19.55;;;11.38;;
23714;SDS011;12036;50.858;4.472;2023-04-06T07:27:08;26.42;;;11.57;;
23714;SDS011;12036;50.858;4.472;2023-04-06T07:29:34;21.42;;;11.95;;
23714;SDS011;12036;50.858;4.472;2023-04-06T07:32:00;19.83;;;10.80;;
23714;SDS011;12036;50.858;4.472;2023-04-06T07:34:25;17.77;;;11.52;;
23714;SDS011;12036;50.858;4.472;2023-04-06T07:36:51;22.17;;;10.27;;
23714;SDS011;12036;50.858;4.472;2023-04-06T07:39:18;15.95;;;10.40;;
23714;SDS011;12036;50.858;4.472;2023-04-06T07:41:44;19.02;;;10.18;;
23714;SDS011;12036;50.858;4.472;2023-04-06T07:44:10;17.63;;;9.43;;
23714;SDS011;12036;50.858;4.472;2023-04-06T07:46:36;14.25;;;8.93;;
23714;SDS011;12036;50.858;4.472;2023-04-06T07:49:01;17.95;;;9.15;;
23714;SDS011;12036;50.858;4.472;2023-04-06T07:51:27;14.15;;;8.57;;
23714;SDS011;12036;50.858;4.472;2023-04-06T07:53:53;18.45;;;8.38;;
23714;SDS011;12036;50.858;4.472;2023-04-06T07:56:19;16.80;;;8.88;;
23714;SDS011;12036;50.858;4.472;2023-04-06T07:58:45;13.85;;;7.78;;
23714;SDS011;12036;50.858;4.472;2023-04-06T08:01:11;17.52;;;8.75;;
23714;SDS011;12036;50.858;4.472;2023-04-06T08:03:37;15.00;;;8.48;;
23714;SDS011;12036;50.858;4.472;2023-04-06T08:06:03;17.38;;;8.07;;
23714;SDS011;12036;50.858;4.472;2023-04-06T08:08:30;15.48;;;8.63;;
23714;SDS011;12036;50.858;4.472;2023-04-06T08:10:55;16.50;;;7.75;;
23714;SDS011;12036;50.858;4.472;2023-04-06T08:13:21;13.68;;;8.02;;
23714;SDS011;12036;50.858;4.472;2023-04-06T08:15:47;14.13;;;8.77;;
23714;SDS011;12036;50.858;4.472;2023-04-06T08:18:13;16.13;;;9.05;;
23714;SDS011;12036;50.858;4.472;2023-04-06T08:20:39;16.67;;;8.77;;
23714;SDS011;12036;50.858;4.472;2023-04-06T08:23:05;15.27;;;8.48;;
23714;SDS011;12036;50.858;4.472;2023-04-06T08:25:32;15.40;;;8.63;;
23714;SDS011;12036;50.858;4.472;2023-04-06T08:28:01;14.60;;;8.43;;
23714;SDS011;12036;50.858;4.472;2023-04-06T08:30:28;14.15;;;8.52;;
23714;SDS011;12036;50.858;4.472;2023-04-06T08:32:54;17.52;;;7.95;;
23714;SDS011;12036;50.858;4.472;2023-04-06T08:35:20;13.07;;;8.43;;
23714;SDS011;12036;50.858;4.472;2023-04-06T08:37:45;16.38;;;8.00;;
23714;SDS011;12036;50.858;4.472;2023-04-06T08:40:11;11.77;;;8.18;;
23714;SDS011;12036;50.858;4.472;2023-04-06T08:42:49;15.00;;;7.63;;
23714;SDS011;12036;50.858;4.472;2023-04-06T08:45:17;13.63;;;8.20;;
23714;SDS011;12036;50.858;4.472;2023-04-06T08:47:46;13.52;;;7.10;;
23714;SDS011;12036;50.858;4.472;2023-04-06T08:50:13;14.82;;;8.15;;
23714;SDS011;12036;50.858;4.472;2023-04-06T08:52:41;15.15;;;7.93;;
23714;SDS011;12036;50.858;4.472;2023-04-06T08:55:08;13.90;;;7.88;;
23714;SDS011;12036;50.858;4.472;2023-04-06T08:57:34;19.15;;;8.25;;
23714;SDS011;12036;50.858;4.472;2023-04-06T09:00:01;11.32;;;7.82;;
23714;SDS011;12036;50.858;4.472;2023-04-06T09:02:27;14.63;;;7.72;;
23714;SDS011;12036;50.858;4.472;2023-04-06T09:04:53;13.85;;;8.35;;
23714;SDS011;12036;50.858;4.472;2023-04-06T09:07:19;14.75;;;8.38;;
23714;SDS011;12036;50.858;4.472;2023-04-06T09:09:46;16.15;;;8.02;;
23714;SDS011;12036;50.858;4.472;2023-04-06T09:12:23;13.27;;;7.45;;
23714;SDS011;12036;50.858;4.472;2023-04-06T09:14:50;17.58;;;8.70;;
23714;SDS011;12036;50.858;4.472;2023-04-06T09:17:25;12.88;;;7.47;;
23714;SDS011;12036;50.858;4.472;2023-04-06T09:19:52;15.25;;;8.07;;
23714;SDS011;12036;50.858;4.472;2023-04-06T09:22:19;16.80;;;8.40;;
23714;SDS011;12036;50.858;4.472;2023-04-06T09:24:46;13.80;;;8.20;;
23714;SDS011;12036;50.858;4.472;2023-04-06T09:27:14;14.57;;;8.23;;
23714;SDS011;12036;50.858;4.472;2023-04-06T09:29:40;16.95;;;8.18;;
23714;SDS011;12036;50.858;4.472;2023-04-06T09:32:07;14.15;;;8.00;;
23714;SDS011;12036;50.858;4.472;2023-04-06T09:34:39;13.95;;;8.48;;
23714;SDS011;12036;50.858;4.472;2023-04-06T09:37:15;14.73;;;8.88;;
23714;SDS011;12036;50.858;4.472;2023-04-06T09:39:41;14.88;;;9.23;;
23714;SDS011;12036;50.858;4.472;2023-04-06T09:42:07;17.65;;;8.30;;
23714;SDS011;12036;50.858;4.472;2023-04-06T09:44:33;13.52;;;8.65;;
23714;SDS011;12036;50.858;4.472;2023-04-06T09:46:59;17.20;;;9.43;;
23714;SDS011;12036;50.858;4.472;2023-04-06T09:49:27;15.80;;;8.48;;
23714;SDS011;12036;50.858;4.472;2023-04-06T09:51:57;12.35;;;7.38;;
23714;SDS011;12036;50.858;4.472;2023-04-06T09:54:28;16.25;;;8.52;;
23714;SDS011;12036;50.858;4.472;2023-04-06T10:05:18;14.80;;;9.07;;
23714;SDS011;12036;50.858;4.472;2023-04-06T10:07:51;14.30;;;7.88;;
23714;SDS011;12036;50.858;4.472;2023-04-06T10:10:19;13.65;;;7.97;;
23714;SDS011;12036;50.858;4.472;2023-04-06T10:12:45;11.98;;;7.93;;
23714;SDS011;12036;50.858;4.472;2023-04-06T10:15:13;16.30;;;8.68;;
23714;SDS011;12036;50.858;4.472;2023-04-06T10:17:40;14.70;;;8.27;;
23714;SDS011;12036;50.858;4.472;2023-04-06T10:20:09;14.38;;;8.18;;
23714;SDS011;12036;50.858;4.472;2023-04-06T10:23:01;11.98;;;7.78;;
23714;SDS011;12036;50.858;4.472;2023-04-06T10:25:51;14.43;;;8.27;;
23714;SDS011;12036;50.858;4.472;2023-04-06T10:28:19;13.93;;;8.63;;
23714;SDS011;12036;50.858;4.472;2023-04-06T10:30:45;16.05;;;6.85;;
23714;SDS011;12036;50.858;4.472;2023-04-06T10:33:14;12.77;;;8.00;;
23714;SDS011;12036;50.858;4.472;2023-04-06T10:35:41;12.80;;;7.43;;
23714;SDS011;12036;50.858;4.472;2023-04-06T10:38:07;12.27;;;8.02;;
23714;SDS011;12036;50.858;4.472;2023-04-06T10:40:36;14.75;;;8.05;;
23714;SDS011;12036;50.858;4.472;2023-04-06T10:43:07;15.70;;;8.18;;
23714;SDS011;12036;50.858;4.472;2023-04-06T10:45:38;15.48;;;7.57;;
23714;SDS011;12036;50.858;4.472;2023-04-06T10:48:16;16.77;;;8.75;;
23714;SDS011;12036;50.858;4.472;2023-04-06T10:50:52;12.65;;;8.23;;
23714;SDS011;12036;50.858;4.472;2023-04-06T10:53:25;15.85;;;9.05;;
23714;SDS011;12036;50.858;4.472;2023-04-06T10:55:54;16.70;;;9.50;;
23714;SDS011;12036;50.858;4.472;2023-04-06T10:58:24;14.70;;;9.13;;
23714;SDS011;12036;50.858;4.472;2023-04-06T11:00:51;16.08;;;9.55;;
23714;SDS011;12036;50.858;4.472;2023-04-06T11:03:18;15.10;;;9.68;;
23714;SDS011;12036;50.858;4.472;2023-04-06T11:05:44;18.77;;;10.80;;
23714;SDS011;12036;50.858;4.472;2023-04-06T11:08:24;14.73;;;9.02;;
23714;SDS011;12036;50.858;4.472;2023-04-06T11:11:07;19.17;;;10.15;;
23714;SDS011;12036;50.858;4.472;2023-04-06T11:14:09;13.13;;;8.82;;
23714;SDS011;12036;50.858;4.472;2023-04-06T11:16:30;15.90;;;8.73;;
23714;SDS011;12036;50.858;4.472;2023-04-06T11:18:57;15.55;;;8.82;;
23714;SDS011;12036;50.858;4.472;2023-04-06T11:21:34;16.33;;;8.75;;
23714;SDS011;12036;50.858;4.472;2023-04-06T11:26:37;14.68;;;9.52;;
23714;SDS011;12036;50.858;4.472;2023-04-06T11:29:13;15.90;;;9.48;;
23714;SDS011;12036;50.858;4.472;2023-04-06T11:31:44;13.88;;;9.13;;
23714;SDS011;12036;50.858;4.472;2023-04-06T11:34:12;14.27;;;8.90;;
23714;SDS011;12036;50.858;4.472;2023-04-06T11:36:41;15.93;;;9.35;;
23714;SDS011;12036;50.858;4.472;2023-04-06T11:39:07;13.93;;;9.02;;
23714;SDS011;12036;50.858;4.472;2023-04-06T11:41:33;12.70;;;7.80;;
23714;SDS011;12036;50.858;4.472;2023-04-06T11:44:00;15.25;;;9.43;;
23714;SDS011;12036;50.858;4.472;2023-04-06T11:46:28;14.60;;;8.10;;
23714;SDS011;12036;50.858;4.472;2023-04-06T11:48:57;12.52;;;8.15;;
23714;SDS011;12036;50.858;4.472;2023-04-06T11:51:25;12.35;;;8.38;;
23714;SDS011;12036;50.858;4.472;2023-04-06T11:53:51;13.57;;;8.25;;
23714;SDS011;12036;50.858;4.472;2023-04-06T11:56:27;12.55;;;8.65;;
23714;SDS011;12036;50.858;4.472;2023-04-06T11:58:54;12.50;;;7.32;;
23714;SDS011;12036;50.858;4.472;2023-04-06T12:01:21;13.52;;;8.40;;
23714;SDS011;12036;50.858;4.472;2023-04-06T12:03:47;14.65;;;8.80;;
23714;SDS011;12036;50.858;4.472;2023-04-06T12:06:13;13.05;;;7.70;;
23714;SDS011;12036;50.858;4.472;2023-04-06T12:08:39;14.52;;;8.82;;
23714;SDS011;12036;50.858;4.472;2023-04-06T12:11:05;13.95;;;9.07;;
23714;SDS011;12036;50.858;4.472;2023-04-06T12:13:31;13.23;;;8.65;;
23714;SDS011;12036;50.858;4.472;2023-04-06T12:15:58;12.35;;;8.48;;
23714;SDS011;12036;50.858;4.472;2023-04-06T12:18:23;13.82;;;9.05;;
23714;SDS011;12036;50.858;4.472;2023-04-06T12:20:50;12.38;;;7.20;;
23714;SDS011;12036;50.858;4.472;2023-04-06T12:23:16;11.02;;;7.55;;
23714;SDS011;12036;50.858;4.472;2023-04-06T12:25:43;11.32;;;7.90;;
23714;SDS011;12036;50.858;4.472;2023-04-06T12:28:09;11.57;;;7.95;;
23714;SDS011;12036;50.858;4.472;2023-04-06T12:30:35;12.90;;;8.05;;
23714;SDS011;12036;50.858;4.472;2023-04-06T12:33:00;12.70;;;7.38;;
23714;SDS011;12036;50.858;4.472;2023-04-06T12:35:26;14.63;;;9.32;;
23714;SDS011;12036;50.858;4.472;2023-04-06T12:37:52;11.75;;;7.70;;
23714;SDS011;12036;50.858;4.472;2023-04-06T12:40:18;12.52;;;7.82;;
23714;SDS011;12036;50.858;4.472;2023-04-06T12:42:43;13.70;;;9.27;;
23714;SDS011;12036;50.858;4.472;2023-04-06T12:45:11;13.52;;;8.18;;
23714;SDS011;12036;50.858;4.472;2023-04-06T12:47:37;13.85;;;9.07;;
23714;SDS011;12036;50.858;4.472;2023-04-06T12:50:03;15.80;;;8.80;;
23714;SDS011;12036;50.858;4.472;2023-04-06T12:52:31;14.70;;;8.13;;
23714;SDS011;12036;50.858;4.472;2023-04-06T12:54:57;9.40;;;6.25;;
23714;SDS011;12036;50.858;4.472;2023-04-06T12:57:25;11.73;;;8.45;;
23714;SDS011;12036;50.858;4.472;2023-04-06T12:59:51;12.85;;;8.68;;
23714;SDS011;12036;50.858;4.472;2023-04-06T13:02:17;12.40;;;7.43;;
23714;SDS011;12036;50.858;4.472;2023-04-06T13:04:45;13.68;;;9.13;;
23714;SDS011;12036;50.858;4.472;2023-04-06T13:07:11;12.35;;;8.60;;
23714;SDS011;12036;50.858;4.472;2023-04-06T13:09:36;14.93;;;7.72;;
23714;SDS011;12036;50.858;4.472;2023-04-06T13:12:02;12.82;;;8.80;;
23714;SDS011;12036;50.858;4.472;2023-04-06T13:14:28;13.70;;;8.93;;
23714;SDS011;12036;50.858;4.472;2023-04-06T13:16:53;10.77;;;6.80;;
23714;SDS011;12036;50.858;4.472;2023-04-06T13:19:19;15.15;;;9.50;;
23714;SDS011;12036;50.858;4.472;2023-04-06T13:21:45;13.05;;;8.88;;
23714;SDS011;12036;50.858;4.472;2023-04-06T13:24:11;13.10;;;9.02;;
23714;SDS011;12036;50.858;4.472;2023-04-06T13:26:36;14.77;;;9.10;;
23714;SDS011;12036;50.858;4.472;2023-04-06T13:29:02;24.67;;;11.10;;
23714;SDS011;12036;50.858;4.472;2023-04-06T13:31:28;23.42;;;11.60;;
23714;SDS011;12036;50.858;4.472;2023-04-06T13:33:54;30.75;;;16.73;;
23714;SDS011;12036;50.858;4.472;2023-04-06T13:36:20;13.70;;;9.50;;
23714;SDS011;12036;50.858;4.472;2023-04-06T13:38:46;15.30;;;9.93;;
23714;SDS011;12036;50.858;4.472;2023-04-06T13:41:19;15.75;;;10.27;;
23714;SDS011;12036;50.858;4.472;2023-04-06T13:43:46;18.80;;;10.10;;
23714;SDS011;12036;50.858;4.472;2023-04-06T13:46:11;16.48;;;10.60;;
23714;SDS011;12036;50.858;4.472;2023-04-06T13:48:37;16.73;;;10.38;;
23714;SDS011;12036;50.858;4.472;2023-04-06T13:51:10;17.80;;;10.65;;
23714;SDS011;12036;50.858;4.472;2023-04-06T13:53:36;15.38;;;9.75;;
23714;SDS011;12036;50.858;4.472;2023-04-06T13:56:02;20.73;;;11.55;;
23714;SDS011;12036;50.858;4.472;2023-04-06T13:58:28;19.40;;;11.55;;
23714;SDS011;12036;50.858;4.472;2023-04-06T14:00:53;17.77;;;11.07;;
23714;SDS011;12036;50.858;4.472;2023-04-06T14:03:19;16.85;;;10.93;;
23714;SDS011;12036;50.858;4.472;2023-04-06T14:05:45;16.85;;;10.70;;
23714;SDS011;12036;50.858;4.472;2023-04-06T14:08:11;15.20;;;10.18;;
23714;SDS011;12036;50.858;4.472;2023-04-06T14:10:39;17.75;;;10.43;;
23714;SDS011;12036;50.858;4.472;2023-04-06T14:13:06;19.10;;;11.27;;
23714;SDS011;12036;50.858;4.472;2023-04-06T14:15:32;17.63;;;10.45;;
23714;SDS011;12036;50.858;4.472;2023-04-06T14:17:58;17.05;;;11.38;;
23714;SDS011;12036;50.858;4.472;2023-04-06T14:20:24;17.85;;;11.25;;
23714;SDS011;12036;50.858;4.472;2023-04-06T14:22:49;20.30;;;11.13;;
23714;SDS011;12036;50.858;4.472;2023-04-06T14:25:17;31.23;;;14.48;;
23714;SDS011;12036;50.858;4.472;2023-04-06T14:27:43;17.05;;;10.23;;
23714;SDS011;12036;50.858;4.472;2023-04-06T14:30:09;15.70;;;10.52;;
23714;SDS011;12036;50.858;4.472;2023-04-06T14:32:35;15.48;;;10.63;;
23714;SDS011;12036;50.858;4.472;2023-04-06T14:35:02;17.33;;;10.38;;
23714;SDS011;12036;50.858;4.472;2023-04-06T14:37:28;18.85;;;13.13;;
23714;SDS011;12036;50.858;4.472;2023-04-06T14:39:55;21.38;;;13.45;;
23714;SDS011;12036;50.858;4.472;2023-04-06T14:42:20;19.27;;;10.93;;